Time;durP1;ratioP1;P1;durP2;ratioP2;P2;SDS_P1;SDS_P2;PMS_P1;PMS_P2;Temp;Humidity;BMP_temperature;BMP_pressure;BME280_temperature;BME280_humidity;BME280_pressure;Samples;Min_cycle;Max_cycle;Signal;HPM_P1;HPM_P2
2021/12/08 00:00:18;;;;;;;0.57;0.57;;;1.90;99.90;;;;;;5035177;28;20085;-80
2021/12/08 00:02:44;;;;;;;6.45;0.80;;;;;;;;;;5038890;28;20040;-82
2021/12/08 00:05:12;;;;;;;0.35;0.28;;;;;;;;;;5040363;28;20051;-81
2021/12/08 00:07:38;;;;;;;1.08;0.98;;;;;;;;;;5039453;28;20033;-81
2021/12/08 00:15:21;;;;;;;2.72;0.90;;;;;;;;;;5033378;28;19984;-80
2021/12/08 00:17:47;;;;;;;0.65;0.60;;;;;;;;;;5033333;28;20037;-82
2021/12/08 00:20:13;;;;;;;1.55;0.88;;;;;;;;;;5035774;28;20532;-83
2021/12/08 00:22:39;;;;;;;1.77;0.50;;;;;;;;;;5036768;28;20086;-80
2021/12/08 00:25:06;;;;;;;1.10;0.95;;;;;;;;;;5035267;28;20539;-82
2021/12/08 00:27:31;;;;;;;0.93;0.50;;;;;;;;;;5034281;28;20040;-81
2021/12/08 00:29:57;;;;;;;0.35;0.35;;;;;;;;;;5037746;28;20029;-83
2021/12/08 00:32:28;;;;;;;4.65;0.50;;;;;;;;;;5037033;28;20131;-82
2021/12/08 00:34:54;;;;;;;0.80;0.50;;;;;;;;;;5036128;28;20026;-81
2021/12/08 00:37:20;;;;;;;1.13;0.68;;;;;;;;;;5033852;28;20040;-81
2021/12/08 00:39:46;;;;;;;2.45;0.50;;;;;;;;;;5038161;28;20518;-84
2021/12/08 00:42:13;;;;;;;0.50;0.50;;;;;;;;;;5034131;28;20029;-81
2021/12/08 00:44:38;;;;;;;2.30;0.95;;;;;;;;;;5038081;28;20396;-82
2021/12/08 00:47:05;;;;;;;0.50;0.50;;;;;;;;;;5039833;28;20032;-82
2021/12/08 00:49:31;;;;;;;2.30;1.05;;;;;;;;;;5036767;28;20682;-81
2021/12/08 00:51:57;;;;;;;2.25;0.57;;;;;;;;;;5038459;28;20051;-83
2021/12/08 00:54:23;;;;;;;0.60;0.60;;;;;;;;;;5039384;28;20089;-81
2021/12/08 00:56:49;;;;;;;0.35;0.35;;;;;;;;;;5028297;28;20671;-82
2021/12/08 00:59:15;;;;;;;0.70;0.57;;;;;;;;;;5035243;28;20018;-81
2021/12/08 01:01:41;;;;;;;0.60;0.35;;;;;;;;;;5036277;28;20029;-80
2021/12/08 01:04:07;;;;;;;1.20;0.88;;;;;;;;;;5036444;28;20025;-79
2021/12/08 01:06:33;;;;;;;0.30;0.20;;;;;;;;;;5037323;28;20029;-81
2021/12/08 01:09:00;;;;;;;2.22;1.00;;;;;;;;;;5037306;28;20507;-81
2021/12/08 01:11:26;;;;;;;1.67;0.52;;;;;;;;;;5030007;28;20049;-82
2021/12/08 01:13:53;;;;;;;0.60;0.43;;;2.40;99.90;;;;;;5020262;28;20029;-81
2021/12/08 01:16:20;;;;;;;0.75;0.55;;;2.50;99.90;;;;;;5046082;28;20026;-80
2021/12/08 01:18:46;;;;;;;1.40;0.75;;;;;;;;;;5043026;28;20666;-80
2021/12/08 01:21:13;;;;;;;0.57;0.47;;;;;;;;;;5035019;28;20093;-81
2021/12/08 01:23:40;;;;;;;0.30;0.30;;;;;;;;;;5039652;28;20033;-79
2021/12/08 01:26:06;;;;;;;0.43;0.30;;;;;;;;;;5042117;28;20025;-81
2021/12/08 01:28:33;;;;;;;4.85;0.68;;;;;;;;;;5048138;28;20017;-80
2021/12/08 01:31:00;;;;;;;1.30;0.50;;;;;;;;;;5038371;28;20052;-81
2021/12/08 01:33:28;;;;;;;1.95;0.63;;;;;;;;;;5042326;28;20037;-80
2021/12/08 01:35:54;;;;;;;0.50;0.47;;;;;;;;;;5041523;28;20043;-81
2021/12/08 01:38:20;;;;;;;0.75;0.50;;;;;;;;;;5038589;28;20029;-80
2021/12/08 01:40:46;;;;;;;1.13;0.50;;;;;;;;;;5040114;28;20032;-80
2021/12/08 01:43:24;;;;;;;0.32;0.30;;;;;;;;;;5039627;28;20032;-80
2021/12/08 01:45:59;;;;;;;3.03;0.95;;;2.40;99.90;;;;;;5037594;28;20039;-80
2021/12/08 01:48:25;;;;;;;0.52;0.40;;;;;;;;;;5046250;28;20052;-80
2021/12/08 01:50:52;;;;;;;1.95;0.50;;;;;;;;;;5043423;28;20041;-80
2021/12/08 01:53:18;;;;;;;0.30;0.30;;;;;;;;;;5042239;28;20029;-80
2021/12/08 01:55:45;;;;;;;0.63;0.63;;;;;;;;;;5044821;28;20025;-81
2021/12/08 01:58:11;;;;;;;0.63;0.50;;;;;;;;;;5044398;28;20479;-82
2021/12/08 02:00:39;;;;;;;0.47;0.38;;;;;;;;;;5037400;28;20021;-80
2021/12/08 02:03:06;;;;;;;0.40;0.32;;;;;;;;;;5040998;28;20130;-80
2021/12/08 02:05:32;;;;;;;0.73;0.40;;;;;;;;;;5047890;28;20033;-81
2021/12/08 02:07:58;;;;;;;4.55;0.65;;;;;;;;;;5038039;28;20473;-80
2021/12/08 02:10:24;;;;;;;1.73;0.50;;;;;;;;;;5042219;28;20052;-80
2021/12/08 02:12:50;;;;;;;0.65;0.20;;;;;;;;;;5035950;28;20480;-81
2021/12/08 02:15:17;;;;;;;1.75;0.30;;;3.20;99.90;;;;;;5034917;28;20504;-81
2021/12/08 02:17:45;;;;;;;1.23;0.63;;;;;;;;;;5042300;28;20030;-82
2021/12/08 02:20:11;;;;;;;0.65;0.30;;;;;;;;;;5046700;28;20055;-80
2021/12/08 02:22:37;;;;;;;1.60;0.65;;;;;;;;;;5039745;28;20040;-81
2021/12/08 02:25:04;;;;;;;1.20;0.50;;;;;;;;;;5042376;28;20516;-82
2021/12/08 02:27:32;;;;;;;0.85;0.40;;;2.20;99.90;;;;;;5040532;28;20045;-80
2021/12/08 02:30:07;;;;;;;1.80;0.60;;;;;;;;;;5039359;28;20116;-82
2021/12/08 02:48:54;;;;;;;0.50;0.30;;;;;;;;;;5041083;28;20136;-81
2021/12/08 02:51:20;;;;;;;0.60;0.60;;;;;;;;;;5037827;28;20176;-80
2021/12/08 02:53:50;;;;;;;0.30;0.30;;;;;;;;;;5041762;28;20041;-82
2021/12/08 02:56:17;;;;;;;0.45;0.30;;;;;;;;;;5044687;28;20029;-82
2021/12/08 02:58:43;;;;;;;0.43;0.40;;;;;;;;;;5040525;28;20436;-81
2021/12/08 03:01:11;;;;;;;0.93;0.63;;;;;;;;;;5037347;28;20029;-81
2021/12/08 03:03:37;;;;;;;2.55;0.57;;;2.00;99.90;;;;;;5038534;28;20061;-81
2021/12/08 03:06:03;;;;;;;0.50;0.40;;;;;;;;;;5040353;28;20087;-81
2021/12/08 03:08:29;;;;;;;2.47;0.50;;;;;;;;;;5043064;28;20033;-82
2021/12/08 03:10:56;;;;;;;0.65;0.32;;;2.30;99.90;;;;;;5039787;28;20370;-82
2021/12/08 03:13:50;;;;;;;1.85;0.45;;;;;;;;;;5037212;28;20051;-81
2021/12/08 03:16:16;;;;;;;0.30;0.30;;;;;;;;;;5039072;28;20063;-80
2021/12/08 03:18:42;;;;;;;1.35;0.82;;;;;;;;;;5039028;28;20127;-82
2021/12/08 03:21:10;;;;;;;3.05;0.50;;;;;;;;;;5041221;28;20626;-81
2021/12/08 03:26:28;;;;;;;0.30;0.30;;;;;;;;;;5036100;28;20072;-82
2021/12/08 03:29:04;;;;;;;1.10;0.68;;;;;;;;;;5033554;28;20443;-82
2021/12/08 03:31:36;;;;;;;0.50;0.40;;;;;;;;;;5040960;28;20102;-81
2021/12/08 03:34:02;;;;;;;0.40;0.40;;;;;;;;;;5040354;28;20021;-81
2021/12/08 03:36:28;;;;;;;0.60;0.50;;;;;;;;;;5036409;28;20109;-81
2021/12/08 03:38:54;;;;;;;0.57;0.50;;;;;;;;;;5040985;28;20123;-81
2021/12/08 03:41:20;;;;;;;0.38;0.32;;;;;;;;;;5043494;28;20040;-81
2021/12/08 03:43:46;;;;;;;1.05;0.60;;;;;;;;;;5034160;28;20025;-81
2021/12/08 03:46:16;;;;;;;2.50;0.95;;;;;;;;;;5039590;28;20037;-81
2021/12/08 03:48:47;;;;;;;0.40;0.40;;;2.40;99.90;;;;;;5041692;28;20018;-83
2021/12/08 03:51:14;;;;;;;1.00;0.63;;;;;;;;;;5038632;28;20083;-82
2021/12/08 03:53:40;;;;;;;1.65;0.68;;;;;;;;;;5042341;28;20032;-81
2021/12/08 03:56:06;;;;;;;0.90;0.32;;;;;;;;;;5037673;28;20056;-81
2021/12/08 03:58:32;;;;;;;1.85;0.70;;;;;;;;;;5040404;28;20078;-82
2021/12/08 04:00:59;;;;;;;0.45;0.38;;;;;;;;;;5043501;28;20033;-81
2021/12/08 04:03:27;;;;;;;0.95;0.50;;;;;;;;;;5040630;28;20040;-81
2021/12/08 04:05:56;;;;;;;0.65;0.40;;;;;;;;;;5034978;28;20040;-82
2021/12/08 04:08:31;;;;;;;0.55;0.40;;;2.00;99.90;;;;;;5031759;28;20157;-81
2021/12/08 04:10:58;;;;;;;1.27;0.63;;;;;;;;;;5038966;28;20041;-82
2021/12/08 04:13:29;;;;;;;1.63;0.57;;;2.40;99.90;;;;;;5039449;28;20401;-84
2021/12/08 04:15:56;;;;;;;0.80;0.77;;;;;;;;;;5041027;28;20550;-82
2021/12/08 04:18:22;;;;;;;2.58;0.50;;;;;;;;;;5026854;28;20031;-82
2021/12/08 04:20:49;;;;;;;1.48;0.75;;;;;;;;;;5032349;28;20033;-82
2021/12/08 04:23:17;;;;;;;0.65;0.30;;;;;;;;;;5042425;28;20059;-81
2021/12/08 04:25:45;;;;;;;1.80;1.00;;;;;;;;;;5042548;28;20037;-81
2021/12/08 04:28:14;;;;;;;2.30;0.70;;;;;;;;;;5039533;28;20040;-81
2021/12/08 04:30:46;;;;;;;1.77;0.80;;;;;;;;;;5033731;28;20037;-82
2021/12/08 04:33:12;;;;;;;1.00;0.47;;;;;;;;;;5032972;28;20036;-83
2021/12/08 04:35:39;;;;;;;0.50;0.30;;;;;;;;;;5045432;28;20054;-82
2021/12/08 04:38:09;;;;;;;1.13;0.60;;;2.00;99.90;;;;;;5037467;28;20362;-81
2021/12/08 04:43:24;;;;;;;4.32;0.88;;;;;;;;;;5039423;28;20119;-82
2021/12/08 04:46:12;;;;;;;1.30;0.60;;;2.20;99.90;;;;;;5039989;28;20447;-82
2021/12/08 04:51:37;;;;;;;0.60;0.47;;;;;;;;;;5040955;28;20049;-82
2021/12/08 05:05:16;;;;;;;1.98;0.60;;;;;;;;;;5044674;28;20335;-82
2021/12/08 05:08:19;;;;;;;2.10;1.00;;;;;;;;;;5033847;28;20029;-82
2021/12/08 05:10:36;;;;;;;30.52;9.50;;;;;;;;;;5044136;28;20170;-80
2021/12/08 05:13:04;;;;;;;29.13;9.70;;;;;;;;;;5044032;28;20041;-81
2021/12/08 05:15:33;;;;;;;17.70;6.82;;;;;;;;;;5050310;28;20851;-82
2021/12/08 05:18:05;;;;;;;2.78;1.20;;;;;;;;;;5044978;28;20030;-81
2021/12/08 05:20:34;;;;;;;1.33;0.67;;;;;;;;;;5037247;28;20037;-82
2021/12/08 05:23:04;;;;;;;1.25;1.15;;;;;;;;;;5035950;28;20059;-83
2021/12/08 05:25:31;;;;;;;1.23;0.88;;;;;;;;;;5035519;28;20692;-82
2021/12/08 05:27:59;;;;;;;2.15;1.20;;;;;;;;;;5032991;28;20029;-80
2021/12/08 05:30:28;;;;;;;2.53;1.50;;;;;;;;;;5034360;28;20132;-81
2021/12/08 05:32:54;;;;;;;1.90;1.08;;;;;;;;;;5031252;28;20401;-81
2021/12/08 05:35:21;;;;;;;5.72;1.85;;;;;;;;;;5032171;28;20120;-82
2021/12/08 05:37:47;;;;;;;2.58;0.85;;;;;;;;;;5031941;28;20864;-83
2021/12/08 05:40:16;;;;;;;0.82;0.70;;;;;;;;;;5035006;28;20397;-81
2021/12/08 05:42:42;;;;;;;2.63;0.98;;;;;;;;;;5036140;28;20107;-82
2021/12/08 05:45:10;;;;;;;1.08;0.70;;;;;;;;;;5041136;28;20040;-83
2021/12/08 05:47:37;;;;;;;1.02;0.65;;;;;;;;;;5032983;28;20779;-83
2021/12/08 05:50:03;;;;;;;2.30;0.98;;;;;;;;;;5035281;28;20035;-82
2021/12/08 05:52:29;;;;;;;1.30;0.88;;;;;;;;;;5037789;28;20060;-83
2021/12/08 05:54:55;;;;;;;2.25;1.10;;;;;;;;;;5036408;28;20021;-83
2021/12/08 05:57:27;;;;;;;5.05;1.02;;;;;;;;;;5039688;28;20432;-82
2021/12/08 05:59:54;;;;;;;2.30;0.75;;;2.20;99.90;;;;;;5040281;28;20053;-81
2021/12/08 06:02:25;;;;;;;9.52;3.85;;;;;;;;;;5041900;28;20044;-83
2021/12/08 06:04:51;;;;;;;7.20;2.65;;;;;;;;;;5038677;28;20115;-83
2021/12/08 06:07:21;;;;;;;7.65;3.00;;;;;;;;;;5035081;28;20037;-83
2021/12/08 06:09:47;;;;;;;2.10;1.50;;;;;;;;;;5034766;28;20025;-81
2021/12/08 06:12:13;;;;;;;1.95;1.23;;;;;;;;;;5036067;28;20087;-81
2021/12/08 06:14:39;;;;;;;2.42;1.25;;;;;;;;;;5036676;28;20033;-84
2021/12/08 06:17:08;;;;;;;3.70;1.40;;;;;;;;;;5030525;28;20037;-82
2021/12/08 06:19:36;;;;;;;3.67;1.80;;;;;;;;;;5029796;28;20040;-83
2021/12/08 06:22:02;;;;;;;3.20;1.83;;;;;;;;;;5046325;28;20041;-84
2021/12/08 06:24:28;;;;;;;4.93;1.27;;;;;;;;;;5042973;28;20034;-83
2021/12/08 06:26:54;;;;;;;6.07;1.98;;;;;;;;;;5036238;28;20021;-86
2021/12/08 06:29:20;;;;;;;2.63;1.77;;;;;;;;;;5040414;28;20377;-83
2021/12/08 06:31:49;;;;;;;5.35;2.25;;;;;;;;;;5041241;28;20079;-82
2021/12/08 06:34:15;;;;;;;4.78;1.65;;;;;;;;;;5044342;28;20017;-85
2021/12/08 06:36:47;;;;;;;9.75;2.40;;;;;;;;;;5038671;28;20635;-84
2021/12/08 06:39:15;;;;;;;6.03;3.05;;;;;;;;;;5041012;28;20071;-83
2021/12/08 06:41:46;;;;;;;7.05;2.83;;;;;;;;;;5044144;28;20468;-83
2021/12/08 06:44:17;;;;;;;2.58;1.35;;;2.40;99.90;;;;;;5045865;28;20026;-85
2021/12/08 06:46:43;;;;;;;3.75;1.85;;;;;;;;;;5043093;28;20028;-82
2021/12/08 06:49:12;;;;;;;5.30;2.25;;;;;;;;;;5037854;28;20168;-82
2021/12/08 06:51:40;;;;;;;6.20;2.05;;;;;;;;;;5041218;28;20441;-82
2021/12/08 06:54:12;;;;;;;5.43;1.45;;;;;;;;;;5046990;28;20032;-83
2021/12/08 06:56:40;;;;;;;2.80;1.67;;;;;;;;;;5035760;28;20481;-84
2021/12/08 06:59:09;;;;;;;4.07;1.85;;;;;;;;;;5036801;28;20497;-84
2021/12/08 07:01:52;;;;;;;3.92;1.73;;;;;;;;;;5040898;28;20021;-83
2021/12/08 07:04:34;;;;;;;4.75;1.63;;;;;;;;;;5046056;28;20039;-84
2021/12/08 07:07:14;;;;;;;3.28;1.58;;;;;;;;;;5038543;28;20052;-85
2021/12/08 07:09:45;;;;;;;4.25;1.67;;;;;;;;;;5047330;28;20040;-82
2021/12/08 07:12:16;;;;;;;5.43;1.83;;;;;;;;;;5042413;28;20037;-87
2021/12/08 07:14:46;;;;;;;4.57;1.77;;;;;;;;;;5038352;28;20037;-84
2021/12/08 07:17:14;;;;;;;2.72;2.00;;;;;;;;;;5040410;28;20036;-81
2021/12/08 07:19:45;;;;;;;5.53;3.03;;;;;;;;;;5050622;28;20533;-81
2021/12/08 07:22:14;;;;;;;4.78;2.50;;;;;;;;;;5045763;28;20385;-85
2021/12/08 07:24:41;;;;;;;7.82;2.88;;;;;;;;;;5043035;28;20431;-83
2021/12/08 07:27:12;;;;;;;3.63;1.77;;;;;;;;;;5043670;28;20033;-85
2021/12/08 07:29:39;;;;;;;4.80;2.58;;;;;;;;;;5039596;28;20438;-83
2021/12/08 07:32:08;;;;;;;4.05;1.90;;;;;;;;;;5039949;28;20128;-84
2021/12/08 07:34:36;;;;;;;8.07;2.42;;;;;;;;;;5048507;28;20083;-84
2021/12/08 07:37:05;;;;;;;3.97;1.90;;;;;;;;;;5035953;28;20040;-83
2021/12/08 07:39:33;;;;;;;11.43;3.13;;;;;;;;;;5042673;28;20025;-84
2021/12/08 07:42:06;;;;;;;10.65;5.20;;;;;;;;;;5041396;28;20120;-84
2021/12/08 07:44:33;;;;;;;9.27;4.70;;;;;;;;;;5043574;28;20018;-81
2021/12/08 07:47:04;;;;;;;13.65;3.25;;;;;;;;;;5048468;28;20021;-82
2021/12/08 07:49:33;;;;;;;4.35;2.42;;;;;;;;;;5042479;28;20033;-83
2021/12/08 07:51:59;;;;;;;3.75;1.95;;;;;;;;;;5039982;28;20132;-82
2021/12/08 07:54:25;;;;;;;8.30;2.67;;;;;;;;;;5042588;28;20097;-84
2021/12/08 07:56:56;;;;;;;2.92;1.55;;;3.50;99.90;;;;;;5036767;28;20029;-84
2021/12/08 07:59:22;;;;;;;6.03;1.65;;;;;;;;;;5043368;28;20094;-84
2021/12/08 08:01:50;;;;;;;4.07;1.98;;;;;;;;;;5044687;28;20033;-85
2021/12/08 08:04:26;;;;;;;4.55;2.40;;;2.50;99.90;;;;;;5034752;28;20018;-84
2021/12/08 08:06:54;;;;;;;5.40;2.80;;;;;;;;;;5036698;28;20037;-83
2021/12/08 08:09:23;;;;;;;3.80;2.40;;;2.40;99.90;;;;;;5044749;28;20091;-83
2021/12/08 08:11:57;;;;;;;6.70;2.42;;;;;;;;;;5045025;28;20047;-84
2021/12/08 08:14:31;;;;;;;;;;;2.70;99.90;;;;;;5043348;28;20044;-81
2021/12/08 08:17:00;;;;;;;3.22;1.77;;;;;;;;;;5039143;28;19913;-85
2021/12/08 08:19:29;;;;;;;10.45;3.67;;;;;;;;;;5042941;28;20029;-85
2021/12/08 08:22:01;;;;;;;7.32;2.85;;;2.60;99.90;;;;;;5039727;28;20044;-86
2021/12/08 08:24:28;;;;;;;7.45;3.13;;;;;;;;;;5041142;28;20045;-84
2021/12/08 08:26:56;;;;;;;4.68;2.95;;;;;;;;;;5041524;28;20029;-83
2021/12/08 08:29:22;;;;;;;6.38;3.63;;;;;;;;;;5040699;28;20121;-84
2021/12/08 08:31:56;;;;;;;2.78;2.22;;;;;;;;;;5048426;28;20440;-83
2021/12/08 08:34:22;;;;;;;6.78;3.63;;;;;;;;;;5037051;28;20025;-83
2021/12/08 08:36:50;;;;;;;4.15;2.38;;;;;;;;;;5043277;28;20059;-84
2021/12/08 08:39:16;;;;;;;4.53;2.42;;;;;;;;;;5044424;28;20442;-85
2021/12/08 08:41:50;;;;;;;5.35;2.25;;;2.80;99.90;;;;;;5040555;28;20033;-84
2021/12/08 08:44:29;;;;;;;3.60;2.35;;;;;;;;;;5045140;28;20033;-84
2021/12/08 08:46:55;;;;;;;4.57;2.13;;;;;;;;;;5039883;28;20104;-83
2021/12/08 08:49:26;;;;;;;8.35;3.28;;;;;;;;;;5045922;28;20034;-84
2021/12/08 08:52:12;;;;;;;3.78;1.88;;;;;;;;;;5049988;28;20075;-84
2021/12/08 08:54:40;;;;;;;5.50;2.30;;;;;;;;;;5037050;28;20170;-84
2021/12/08 08:57:13;;;;;;;6.03;3.63;;;;;;;;;;5037995;28;20384;-84
2021/12/08 08:59:44;;;;;;;4.38;2.55;;;;;;;;;;5042611;28;20112;-84
2021/12/08 09:02:13;;;;;;;3.53;1.75;;;;;;;;;;5039597;28;20044;-83
2021/12/08 09:04:42;;;;;;;3.75;1.65;;;;;;;;;;5039969;28;20048;-84
2021/12/08 09:07:22;;;;;;;8.27;3.13;;;4.10;99.90;;;;;;5047416;28;20079;-84
2021/12/08 09:09:48;;;;;;;3.35;1.88;;;;;;;;;;5037136;28;20040;-84
2021/12/08 09:12:14;;;;;;;4.25;1.98;;;;;;;;;;5043808;28;20366;-84
2021/12/08 09:14:44;;;;;;;5.70;2.80;;;;;;;;;;5049844;28;20084;-83
2021/12/08 09:17:22;;;;;;;5.05;2.42;;;;;;;;;;5041564;28;20030;-85
2021/12/08 09:19:52;;;;;;;6.25;2.00;;;;;;;;;;5045301;28;20025;-83
2021/12/08 09:22:22;;;;;;;4.97;2.63;;;;;;;;;;5043974;28;20030;-84
2021/12/08 09:25:08;;;;;;;3.97;2.05;;;4.10;99.90;;;;;;5039654;28;20025;-84
2021/12/08 09:27:37;;;;;;;5.68;2.13;;;;;;;;;;5043926;28;20036;-86
2021/12/08 09:30:10;;;;;;;4.20;2.50;;;4.30;99.90;;;;;;5044494;28;20032;-86
2021/12/08 09:32:48;;;;;;;5.93;3.08;;;;;;;;;;5038723;28;20051;-85
2021/12/08 09:35:18;;;;;;;4.93;2.33;;;;;;;;;;5038284;28;20435;-84
2021/12/08 09:37:49;;;;;;;3.90;2.70;;;4.20;99.90;;;;;;5043650;28;20063;-84
2021/12/08 09:40:15;;;;;;;4.30;2.40;;;;;;;;;;5050514;28;20021;-86
2021/12/08 09:42:46;;;;;;;3.80;2.55;;;;;;;;;;5050416;28;20026;-84
2021/12/08 09:45:24;;;;;;;3.50;2.15;;;;;;;;;;5049245;28;20037;-83
2021/12/08 09:47:50;;;;;;;4.05;2.22;;;;;;;;;;5048655;28;20021;-83
2021/12/08 09:50:16;;;;;;;3.55;1.73;;;;;;;;;;5036333;28;20067;-83
2021/12/08 09:52:43;;;;;;;5.65;2.58;;;;;;;;;;5044275;28;20045;-83
2021/12/08 09:55:12;;;;;;;5.07;2.08;;;4.20;99.90;;;;;;5050279;28;20013;-85
2021/12/08 09:57:38;;;;;;;5.28;2.05;;;;;;;;;;5045983;28;20021;-84
2021/12/08 10:00:11;;;;;;;5.25;3.22;;;4.20;99.90;;;;;;5039490;28;20410;-83
2021/12/08 10:02:38;;;;;;;5.78;2.83;;;;;;;;;;5045029;28;20068;-85
2021/12/08 10:05:15;;;;;;;4.05;1.55;;;5.00;99.90;;;;;;5046930;28;20077;-83
2021/12/08 10:07:43;;;;;;;2.53;1.52;;;;;;;;;;5041844;28;20036;-84
2021/12/08 10:10:10;;;;;;;3.75;2.28;;;;;;;;;;5040879;28;20366;-84
2021/12/08 10:12:37;;;;;;;4.78;2.15;;;;;;;;;;5040525;28;20036;-84
2021/12/08 10:15:04;;;;;;;4.95;2.35;;;;;;;;;;5051458;28;20028;-84
2021/12/08 10:17:30;;;;;;;6.25;2.70;;;;;;;;;;5041916;28;20036;-84
2021/12/08 10:20:08;;;;;;;4.60;2.40;;;;;;;;;;5043033;28;20029;-86
2021/12/08 10:22:34;;;;;;;7.40;3.42;;;;;;;;;;5050608;28;20029;-86
2021/12/08 10:25:15;;;;;;;4.93;2.67;;;;;;;;;;5047235;28;20039;-84
2021/12/08 10:27:59;;;;;;;6.45;3.25;;;;;;;;;;5042497;28;20033;-83
2021/12/08 10:30:25;;;;;;;4.57;2.17;;;;;;;;;;5047111;28;20033;-84
2021/12/08 10:32:53;;;;;;;5.10;3.00;;;;;;;;;;5045913;28;20025;-83
2021/12/08 10:35:41;;;;;;;7.57;3.55;;;;;;;;;;5039994;28;20076;-84
2021/12/08 10:38:07;;;;;;;4.90;3.25;;;;;;;;;;5048115;28;20037;-84
2021/12/08 10:40:33;;;;;;;4.75;2.97;;;;;;;;;;5052467;28;20025;-84
2021/12/08 10:42:59;;;;;;;4.72;2.00;;;;;;;;;;5043442;28;20236;-83
2021/12/08 10:45:28;;;;;;;5.57;2.60;;;4.30;99.90;;;;;;5041359;28;20034;-84
2021/12/08 10:47:58;;;;;;;5.88;2.30;;;;;;;;;;5043614;28;20039;-84
2021/12/08 10:56:19;;;;;;;5.30;3.38;;;4.40;99.90;;;;;;5041465;28;20036;-84
2021/12/08 10:58:50;;;;;;;4.18;2.40;;;;;;;;;;5045709;28;20045;-82
2021/12/08 11:01:21;;;;;;;6.22;3.17;;;;;;;;;;5041725;28;20034;-84
2021/12/08 11:03:48;;;;;;;6.90;3.38;;;;;;;;;;5048520;28;20048;-82
2021/12/08 11:06:16;;;;;;;5.50;3.22;;;;;;;;;;5034756;28;20076;-83
2021/12/08 11:08:44;;;;;;;5.57;3.58;;;;;;;;;;5042608;28;20449;-83
2021/12/08 11:11:20;;;;;;;5.38;2.40;;;;;;;;;;5045309;28;20504;-83
2021/12/08 11:13:51;;;;;;;4.80;2.50;;;;;;;;;;5045312;28;20021;-81
2021/12/08 11:16:18;;;;;;;4.60;2.67;;;;;;;;;;5041988;28;20055;-81
2021/12/08 11:18:48;;;;;;;7.35;3.22;;;;;;;;;;5044534;28;20068;-84
2021/12/08 11:21:19;;;;;;;6.60;2.90;;;;;;;;;;5046509;28;20481;-83
2021/12/08 11:23:48;;;;;;;6.50;3.00;;;;;;;;;;5048272;28;20025;-84
2021/12/08 11:26:17;;;;;;;6.07;3.05;;;;;;;;;;5049628;28;20037;-83
2021/12/08 11:28:45;;;;;;;6.05;3.67;;;4.30;99.90;;;;;;5039994;28;20032;-84
2021/12/08 11:31:13;;;;;;;4.05;2.40;;;;;;;;;;5050356;28;20045;-83
2021/12/08 11:33:48;;;;;;;4.72;2.25;;;;;;;;;;5038642;28;20071;-85
2021/12/08 11:36:19;;;;;;;3.58;2.17;;;4.30;99.90;;;;;;5033675;28;20523;-82
2021/12/08 11:38:47;;;;;;;5.43;2.30;;;5.50;99.90;;;;;;5038546;28;20036;-82
2021/12/08 11:41:29;;;;;;;5.85;2.67;;;;;;;;;;5037455;28;20026;-83
2021/12/08 11:43:56;;;;;;;3.97;2.00;;;;;;;;;;5042705;28;20037;-83
2021/12/08 11:46:23;;;;;;;1.98;1.38;;;;;;;;;;5046439;28;20018;-83
2021/12/08 11:48:56;;;;;;;3.80;2.00;;;;;;;;;;5040248;28;20048;-82
2021/12/08 11:51:22;;;;;;;2.60;1.27;;;;;;;;;;5049046;28;20109;-82
2021/12/08 11:53:48;;;;;;;4.50;2.13;;;;;;;;;;5042617;28;20029;-82
2021/12/08 11:56:31;;;;;;;3.92;2.10;;;;;;;;;;5038374;28;20125;-82
2021/12/08 11:58:57;;;;;;;5.13;2.60;;;;;;;;;;5041144;28;20025;-83
2021/12/08 12:01:23;;;;;;;7.65;3.13;;;;;;;;;;5045141;28;20112;-82
2021/12/08 12:03:49;;;;;;;3.75;1.90;;;;;;;;;;5040107;28;20106;-82
2021/12/08 12:06:15;;;;;;;2.20;1.33;;;;;;;;;;5036814;28;20025;-82
2021/12/08 12:08:41;;;;;;;5.82;2.15;;;;;;;;;;5046142;28;20035;-83
2021/12/08 12:11:07;;;;;;;4.68;1.60;;;;;;;;;;5030557;28;20635;-82
2021/12/08 12:13:33;;;;;;;5.82;2.40;;;;;;;;;;5044027;28;20029;-82
2021/12/08 12:15:59;;;;;;;4.82;2.40;;;;;;;;;;5046764;28;20033;-82
2021/12/08 12:18:30;;;;;;;4.20;2.03;;;;;;;;;;5045895;28;20033;-82
2021/12/08 12:21:06;;;;;;;4.53;2.47;;;4.60;99.90;;;;;;5048557;28;20056;-82
2021/12/08 12:23:58;;;;;;;4.53;2.28;;;;;;;;;;5053291;28;20067;-81
2021/12/08 12:26:31;;;;;;;5.45;2.45;;;;;;;;;;5042865;28;20053;-81
2021/12/08 12:29:00;;;;;;;3.17;1.85;;;;;;;;;;5040263;28;20366;-81
2021/12/08 12:31:38;;;;;;;5.00;2.45;;;;;;;;;;5049906;28;20045;-82
2021/12/08 12:34:20;;;;;;;4.28;2.30;;;;;;;;;;5043418;28;20103;-82
2021/12/08 12:36:46;;;;;;;6.65;2.65;;;;;;;;;;5035472;28;20116;-81
2021/12/08 12:39:13;;;;;;;8.20;2.85;;;;;;;;;;5044317;28;20056;-81
2021/12/08 12:41:39;;;;;;;6.43;2.58;;;;;;;;;;5044943;28;20017;-81
2021/12/08 12:44:17;;;;;;;5.72;3.10;;;;;;;;;;5042697;28;20094;-81
2021/12/08 12:47:02;;;;;;;6.93;2.90;;;;;;;;;;5041588;28;20053;-80
2021/12/08 12:49:28;;;;;;;8.63;3.42;;;;;;;;;;5042580;28;20060;-80
2021/12/08 12:52:02;;;;;;;4.50;2.92;;;5.10;99.90;;;;;;5046673;28;20028;-81
2021/12/08 12:54:28;;;;;;;6.40;2.75;;;;;;;;;;5039401;28;20017;-81
2021/12/08 12:56:55;;;;;;;8.95;4.32;;;4.30;99.90;;;;;;5039451;28;20040;-81
2021/12/08 12:59:24;;;;;;;5.28;2.67;;;;;;;;;;5044138;28;20080;-80
2021/12/08 13:02:05;;;;;;;5.70;2.25;;;;;;;;;;5039392;28;20037;-82
2021/12/08 13:04:34;;;;;;;5.68;2.75;;;;;;;;;;5035224;28;20084;-80
2021/12/08 13:07:05;;;;;;;6.88;3.38;;;;;;;;;;5035421;28;20029;-81
2021/12/08 13:09:41;;;;;;;3.38;2.67;;;;;;;;;;5043092;28;20041;-81
2021/12/08 13:12:10;;;;;;;5.15;1.95;;;5.00;99.90;;;;;;5040273;28;20037;-82
2021/12/08 13:14:36;;;;;;;9.95;3.85;;;;;;;;;;5036002;28;20018;-82
2021/12/08 13:17:13;;;;;;;4.75;2.50;;;;;;;;;;5039911;28;20025;-83
2021/12/08 13:19:47;;;;;;;3.83;2.45;;;;;;;;;;5037441;28;20029;-83
2021/12/08 13:22:32;;;;;;;6.72;2.83;;;;;;;;;;5047443;28;20478;-83
2021/12/08 13:25:00;;;;;;;5.82;3.08;;;;;;;;;;5045482;28;20091;-83
2021/12/08 13:27:29;;;;;;;4.28;2.33;;;;;;;;;;5041517;28;20090;-83
2021/12/08 13:30:15;;;;;;;5.28;2.97;;;;;;;;;;5040362;28;20025;-83
2021/12/08 13:32:45;;;;;;;6.95;3.40;;;;;;;;;;5038575;28;20060;-82
2021/12/08 13:35:11;;;;;;;4.13;2.13;;;;;;;;;;5041725;28;20025;-82
2021/12/08 13:37:37;;;;;;;4.55;2.72;;;;;;;;;;5045189;28;20040;-82
2021/12/08 13:40:08;;;;;;;4.78;2.60;;;;;;;;;;5049850;28;20025;-82
2021/12/08 13:42:47;;;;;;;5.93;2.97;;;4.30;99.90;;;;;;5046291;28;20809;-82
2021/12/08 13:45:14;;;;;;;6.07;3.42;;;;;;;;;;5042293;28;20107;-83
2021/12/08 13:47:41;;;;;;;5.75;3.17;;;;;;;;;;5045727;28;20163;-83
2021/12/08 13:50:11;;;;;;;6.95;3.40;;;;;;;;;;5041831;28;20021;-82
2021/12/08 13:52:39;;;;;;;8.32;3.28;;;;;;;;;;5050171;28;20057;-82
2021/12/08 13:55:08;;;;;;;6.22;2.95;;;;;;;;;;5056653;28;20101;-82
2021/12/08 13:57:34;;;;;;;6.53;2.90;;;;;;;;;;5041254;28;20040;-80
2021/12/08 14:00:18;;;;;;;3.25;2.50;;;;;;;;;;5048592;28;20453;-82
2021/12/08 14:02:44;;;;;;;6.68;3.38;;;;;;;;;;5040291;28;20388;-82
2021/12/08 14:05:13;;;;;;;5.55;3.25;;;;;;;;;;5045588;28;20022;-82
2021/12/08 14:07:40;;;;;;;6.50;2.88;;;;;;;;;;5037774;28;20499;-82
2021/12/08 14:10:17;;;;;;;5.60;2.78;;;;;;;;;;5042505;28;20025;-83
2021/12/08 14:12:50;;;;;;;3.38;2.33;;;;;;;;;;5046869;28;20068;-82
2021/12/08 14:15:25;;;;;;;6.03;2.92;;;;;;;;;;5039510;28;20043;-84
2021/12/08 14:17:51;;;;;;;9.15;2.95;;;;;;;;;;5046366;28;20380;-82
2021/12/08 14:20:34;;;;;;;6.03;3.85;;;4.20;99.90;;;;;;5042237;28;20025;-80
2021/12/08 14:23:02;;;;;;;6.32;3.53;;;;;;;;;;5050101;28;20392;-81
2021/12/08 14:25:33;;;;;;;6.70;3.15;;;4.20;99.90;;;;;;5043421;28;20106;-80
2021/12/08 14:27:59;;;;;;;9.57;4.35;;;;;;;;;;5044782;28;20029;-80
2021/12/08 14:30:25;;;;;;;9.77;4.40;;;;;;;;;;5037949;28;20028;-80
2021/12/08 14:33:01;;;;;;;5.60;3.30;;;;;;;;;;5049706;28;20128;-81
2021/12/08 14:35:27;;;;;;;5.10;2.90;;;;;;;;;;5040149;28;22617;-82
2021/12/08 14:38:00;;;;;;;6.82;2.95;;;;;;;;;;5034106;28;20473;-82
2021/12/08 14:40:26;;;;;;;;;;;;;;;;;;5046066;28;20029;-82
2021/12/08 14:42:52;;;;;;;7.88;3.78;;;;;;;;;;5037736;28;19971;-81
2021/12/08 14:45:18;;;;;;;7.95;4.32;;;;;;;;;;5037018;28;20021;-82
2021/12/08 14:47:51;;;;;;;8.43;3.53;;;;;;;;;;5033779;28;20027;-81
2021/12/08 14:50:20;;;;;;;7.00;3.55;;;;;;;;;;5045006;28;20033;-82
2021/12/08 14:52:46;;;;;;;7.85;3.55;;;;;;;;;;5037281;28;20048;-81
2021/12/08 14:55:14;;;;;;;7.55;3.88;;;;;;;;;;5029836;28;20107;-81
2021/12/08 14:57:41;;;;;;;6.03;3.38;;;;;;;;;;5052122;28;20029;-80
2021/12/08 15:00:12;;;;;;;5.30;2.78;;;;;;;;;;5046279;28;20041;-81
2021/12/08 15:02:41;;;;;;;7.20;3.67;;;;;;;;;;5040806;28;20021;-81
2021/12/08 15:05:08;;;;;;;9.15;3.97;;;;;;;;;;5045098;28;20176;-81
2021/12/08 15:07:35;;;;;;;4.63;2.90;;;4.50;99.90;;;;;;5036033;28;20554;-80
2021/12/08 15:10:04;;;;;;;8.10;4.22;;;;;;;;;;5039691;28;20159;-81
2021/12/08 15:12:30;;;;;;;5.57;4.13;;;;;;;;;;5043605;28;20254;-80
2021/12/08 15:14:56;;;;;;;9.35;3.67;;;;;;;;;;5040522;28;20594;-80
2021/12/08 15:17:32;;;;;;;10.00;4.05;;;;;;;;;;5052077;28;20037;-81
2021/12/08 15:19:59;;;;;;;8.30;4.10;;;;;;;;;;5047158;28;20610;-80
2021/12/08 15:22:28;;;;;;;7.50;4.35;;;4.10;99.90;;;;;;5038537;28;20027;-81
2021/12/08 15:25:27;;;;;;;5.75;3.40;;;;;;;;;;5038821;28;20035;-81
2021/12/08 15:27:54;;;;;;;6.72;3.15;;;;;;;;;;5026508;28;20528;-82